METAR Data
IDs: Format: Raw Decoded Include TAF

Data at: 0842 UTC 01 Aug 2021

LZTT 010830Z 19007KT 140V230 9999 -SHRA FEW040 SCT056 17/15 Q1011 NOSIG